createdAt,value
2018-05-26T00:04:53.618Z,9.30
2018-05-26T00:09:56.107Z,9.02
2018-05-26T00:14:58.607Z,9.00
2018-05-26T00:20:01.888Z,9.90
2018-05-26T00:25:04.387Z,8.60
2018-05-26T00:30:06.892Z,10.23
2018-05-26T00:35:09.495Z,10.40
2018-05-26T00:40:12.748Z,9.20
2018-05-26T00:45:15.222Z,9.00
2018-05-26T00:50:18.915Z,8.57
2018-05-26T00:55:21.395Z,9.40
2018-05-26T01:00:23.875Z,9.63
2018-05-26T01:05:26.415Z,10.10
2018-05-26T01:10:28.916Z,10.50
2018-05-26T01:15:31.408Z,9.38
2018-05-26T01:20:33.968Z,8.20
2018-05-26T01:25:36.480Z,8.68
2018-05-26T01:30:42.208Z,9.40
2018-05-26T01:35:44.737Z,9.40
2018-05-26T01:40:48.015Z,10.10
2018-05-26T01:45:50.574Z,10.95
2018-05-26T01:50:53.072Z,9.70
2018-05-26T01:55:55.576Z,10.97
2018-05-26T02:00:58.070Z,10.90
2018-05-26T02:06:00.559Z,9.70
2018-05-26T02:11:03.069Z,10.50
2018-05-26T02:16:05.551Z,11.50
2018-05-26T02:21:08.095Z,9.80
2018-05-26T02:26:11.357Z,9.63
2018-05-26T02:31:13.868Z,9.60
2018-05-26T02:36:16.474Z,10.30
2018-05-26T02:41:18.976Z,10.80
2018-05-26T02:46:22.249Z,9.70
2018-05-26T02:51:24.773Z,10.90
2018-05-26T02:56:27.262Z,9.77
2018-05-26T03:01:29.786Z,10.02
2018-05-26T03:06:38.673Z,10.32
2018-05-26T03:11:46.789Z,10.88
2018-05-26T03:16:52.789Z,12.43
2018-05-26T03:21:55.280Z,10.67
2018-05-26T03:26:57.779Z,11.12
2018-05-26T03:32:00.293Z,11.02
2018-05-26T03:37:02.834Z,12.63
2018-05-26T03:42:05.338Z,10.60
2018-05-26T03:47:07.862Z,11.35
2018-05-26T03:52:11.136Z,10.40
2018-05-26T03:57:25.636Z,10.38
2018-05-26T04:02:29.126Z,10.43
2018-05-26T04:07:31.599Z,9.43
2018-05-26T04:12:34.136Z,10.05
2018-05-26T04:17:36.635Z,11.50
2018-05-26T04:22:39.888Z,9.90
2018-05-26T04:27:43.576Z,9.25
2018-05-26T04:32:47.339Z,9.40
2018-05-26T04:37:53.249Z,9.77
2018-05-26T04:42:56.728Z,10.13
2018-05-26T04:47:59.285Z,11.83
2018-05-26T04:53:02.599Z,11.68
2018-05-26T04:58:05.236Z,11.30
2018-05-26T05:03:07.774Z,11.60
2018-05-26T05:08:10.301Z,11.80
2018-05-26T05:13:14.613Z,11.50
2018-05-26T05:18:18.046Z,11.80
2018-05-26T05:23:20.615Z,11.30
2018-05-26T05:28:23.163Z,10.27
2018-05-26T05:33:25.711Z,12.70
2018-05-26T05:38:29.220Z,12.10
2018-05-26T05:43:31.846Z,13.57
2018-05-26T05:48:38.143Z,12.77
2018-05-26T05:53:40.647Z,12.57
2018-05-26T05:58:43.224Z,11.80
2018-05-26T06:03:46.550Z,12.60
2018-05-26T06:08:49.056Z,13.27
2018-05-26T06:13:51.642Z,13.30
2018-05-26T06:18:54.204Z,11.23
2018-05-26T06:23:57.511Z,12.37
2018-05-26T06:29:00.781Z,12.00
2018-05-26T06:34:03.327Z,11.03
2018-05-26T06:39:05.836Z,10.75
2018-05-26T06:44:08.361Z,9.50
2018-05-26T06:49:10.927Z,9.60
2018-05-26T06:54:13.444Z,9.77
2018-05-26T06:59:16.072Z,10.20
2018-05-26T07:04:18.612Z,9.60
2018-05-26T07:09:21.172Z,8.40
2018-05-26T07:14:24.449Z,9.40
2018-05-26T07:19:26.984Z,8.60
2018-05-26T07:24:30.627Z,9.27
2018-05-26T07:29:34.347Z,8.60
2018-05-26T07:34:39.051Z,8.82
2018-05-26T07:39:41.577Z,9.00
2018-05-26T07:44:44.107Z,9.30
2018-05-26T07:49:46.620Z,8.70
2018-05-26T07:54:50.073Z,8.68
2018-05-26T07:59:52.629Z,9.25
2018-05-26T08:04:56.165Z,8.18
2018-05-26T08:09:59.432Z,8.52
2018-05-26T08:15:01.949Z,7.97
2018-05-26T08:20:06.613Z,7.95
2018-05-26T08:25:09.915Z,7.87
2018-05-26T08:30:12.433Z,8.10
2018-05-26T08:35:15.697Z,7.30
2018-05-26T08:40:19.041Z,7.77
2018-05-26T08:45:22.377Z,7.67
2018-05-26T08:50:25.135Z,7.80
2018-05-26T08:55:27.683Z,7.00
2018-05-26T09:00:30.216Z,7.28
2018-05-26T09:05:32.762Z,6.80
2018-05-26T09:10:35.310Z,6.28
2018-05-26T09:15:37.848Z,6.50
2018-05-26T09:20:40.404Z,6.32
2018-05-26T09:25:42.911Z,6.53
2018-05-26T09:30:46.212Z,6.78
2018-05-26T09:35:49.493Z,5.70
2018-05-26T09:40:52.011Z,6.30
2018-05-26T09:45:54.569Z,6.00
2018-05-26T09:50:57.088Z,6.35
2018-05-26T09:55:59.605Z,5.55
2018-05-26T10:01:02.900Z,5.78
2018-05-26T10:06:05.476Z,5.25
2018-05-26T10:11:08.739Z,5.95
2018-05-26T10:16:12.076Z,4.80
2018-05-26T10:21:14.654Z,4.90
2018-05-26T10:26:17.227Z,5.37
2018-05-26T10:31:19.756Z,4.77
2018-05-26T10:36:22.279Z,4.53
2018-05-26T10:41:26.302Z,4.30
2018-05-26T10:46:28.840Z,4.43
2018-05-26T10:51:31.384Z,5.00
2018-05-26T10:56:37.565Z,4.60
2018-05-26T11:01:40.107Z,4.43
2018-05-26T11:06:47.472Z,4.60
2018-05-26T11:11:50.060Z,4.20
2018-05-26T11:16:53.625Z,4.55
2018-05-26T11:21:56.918Z,4.60
2018-05-26T11:27:00.241Z,4.50
2018-05-26T11:32:03.510Z,4.40
2018-05-26T11:37:06.011Z,4.20
2018-05-26T11:42:08.583Z,4.10
2018-05-26T11:47:11.096Z,3.65
2018-05-26T11:52:13.605Z,3.90
2018-05-26T11:57:16.133Z,4.40
2018-05-26T12:02:18.664Z,4.00
2018-05-26T12:07:21.187Z,4.20
2018-05-26T12:12:24.509Z,4.15
2018-05-26T12:17:27.784Z,3.80
2018-05-26T12:22:30.287Z,3.90
2018-05-26T12:27:32.799Z,3.60
2018-05-26T12:32:36.094Z,4.00
2018-05-26T12:37:38.624Z,3.67
2018-05-26T12:42:41.887Z,3.80
2018-05-26T12:47:44.442Z,3.87
2018-05-26T12:52:46.978Z,4.10
2018-05-26T12:57:50.469Z,3.53
2018-05-26T13:02:53.002Z,3.58
2018-05-26T13:07:55.670Z,3.60
2018-05-26T13:12:58.997Z,3.40
2018-05-26T13:18:01.522Z,4.00
2018-05-26T13:23:04.850Z,4.40
2018-05-26T13:28:07.442Z,3.70
2018-05-26T13:33:10.019Z,3.77
2018-05-26T13:38:13.276Z,3.50
2018-05-26T13:43:17.658Z,3.28
2018-05-26T13:48:20.149Z,3.20
2018-05-26T13:53:23.571Z,3.65
2018-05-26T13:58:26.758Z,3.67
2018-05-26T14:03:29.281Z,3.90
2018-05-26T14:08:32.566Z,4.07
2018-05-26T14:13:35.088Z,3.70
2018-05-26T14:18:38.375Z,3.40
2018-05-26T14:23:40.895Z,4.00
2018-05-26T14:28:44.179Z,3.60
2018-05-26T14:33:46.689Z,3.20
2018-05-26T14:38:49.989Z,4.07
2018-05-26T14:43:52.494Z,3.55
2018-05-26T14:48:55.798Z,3.85
2018-05-26T14:53:58.322Z,3.70
2018-05-26T14:59:00.828Z,3.40
2018-05-26T15:04:03.314Z,3.80
2018-05-26T15:09:06.147Z,3.75
2018-05-26T15:14:08.746Z,3.45
2018-05-26T15:19:11.259Z,3.80
2018-05-26T15:24:13.784Z,3.97
2018-05-26T15:29:16.326Z,3.90
2018-05-26T15:34:19.806Z,3.70
2018-05-26T15:39:22.371Z,4.18
2018-05-26T15:44:26.670Z,4.77
2018-05-26T15:49:29.218Z,5.03
2018-05-26T15:54:31.736Z,3.90
2018-05-26T15:59:34.250Z,4.40
2018-05-26T16:04:36.845Z,3.60
2018-05-26T16:09:39.392Z,3.40
2018-05-26T16:14:41.918Z,4.70
2018-05-26T16:19:44.470Z,16.80
2018-05-26T16:24:47.013Z,21.58
2018-05-26T16:29:49.519Z,6.00
2018-05-26T16:34:52.035Z,4.50
2018-05-26T16:39:55.311Z,4.65
2018-05-26T16:44:57.884Z,4.80
2018-05-26T16:50:00.425Z,4.22
2018-05-26T16:55:04.753Z,9.93
2018-05-26T17:00:07.284Z,10.85
2018-05-26T17:05:09.799Z,9.43
2018-05-26T17:10:12.338Z,4.90
2018-05-26T17:15:14.915Z,3.97
2018-05-26T17:20:17.519Z,4.10
2018-05-26T17:25:20.021Z,4.00
2018-05-26T17:30:22.728Z,3.93
2018-05-26T17:35:26.325Z,4.35
2018-05-26T17:40:28.823Z,4.50
2018-05-26T17:45:31.341Z,5.63
2018-05-26T17:50:33.908Z,4.55
2018-05-26T17:55:36.472Z,7.40
2018-05-26T18:00:38.996Z,5.10
2018-05-26T18:05:43.539Z,4.00
2018-05-26T18:10:46.263Z,4.53
2018-05-26T18:15:48.820Z,4.60
2018-05-26T18:20:51.352Z,6.05
2018-05-26T18:25:53.964Z,5.30
2018-05-26T18:30:58.381Z,5.15
2018-05-26T18:36:00.894Z,5.00
2018-05-26T18:41:03.444Z,5.90
2018-05-26T18:46:05.994Z,5.60
2018-05-26T18:51:08.631Z,7.70
2018-05-26T18:56:13.580Z,8.90
2018-05-26T19:01:16.360Z,9.60
2018-05-26T19:06:20.077Z,6.73
2018-05-26T19:11:22.999Z,7.35
2018-05-26T19:16:25.778Z,7.10
2018-05-26T19:21:28.413Z,8.00
2018-05-26T19:26:31.771Z,8.40
2018-05-26T19:31:34.363Z,7.90
2018-05-26T19:36:36.904Z,7.70
2018-05-26T19:41:42.763Z,8.70
2018-05-26T19:46:51.444Z,8.80
2018-05-26T19:51:53.989Z,8.50
2018-05-26T19:56:56.644Z,9.10
2018-05-26T20:02:02.055Z,9.25
2018-05-26T20:07:04.789Z,9.10
2018-05-26T20:12:07.354Z,8.60
2018-05-26T20:17:09.974Z,8.70
2018-05-26T20:22:13.315Z,8.50
2018-05-26T20:27:19.069Z,8.77
2018-05-26T20:32:21.754Z,8.60
2018-05-26T20:37:24.417Z,9.20
2018-05-26T20:42:26.997Z,9.90
2018-05-26T20:47:30.983Z,9.45
2018-05-26T20:52:35.872Z,10.15
2018-05-26T20:57:38.564Z,9.70
2018-05-26T21:02:41.093Z,9.07
2018-05-26T21:07:44.395Z,10.00
2018-05-26T21:12:46.927Z,8.90
2018-05-26T21:17:49.588Z,10.50
2018-05-26T21:22:52.252Z,9.90
2018-05-26T21:27:54.863Z,10.70
2018-05-26T21:32:58.499Z,11.60
2018-05-26T21:38:01.015Z,11.15
2018-05-26T21:43:04.491Z,11.73
2018-05-26T21:48:08.874Z,12.50
2018-05-26T21:53:12.385Z,12.80
2018-05-26T21:58:16.097Z,11.75
2018-05-26T22:03:23.650Z,11.80
2018-05-26T22:08:28.002Z,11.88
2018-05-26T22:13:30.718Z,11.80
2018-05-26T22:18:33.377Z,11.50
2018-05-26T22:23:36.749Z,11.60
2018-05-26T22:28:41.324Z,12.45
2018-05-26T22:33:43.979Z,11.30
2018-05-26T22:38:47.411Z,13.53
2018-05-26T22:43:49.999Z,13.55
2018-05-26T22:48:52.632Z,12.80
2018-05-26T22:53:55.181Z,13.00
2018-05-26T22:58:58.503Z,12.82
2018-05-26T23:04:01.113Z,12.90
2018-05-26T23:09:03.679Z,12.50
2018-05-26T23:14:07.062Z,13.57
2018-05-26T23:19:09.603Z,12.00
2018-05-26T23:24:12.198Z,12.07
2018-05-26T23:29:15.692Z,11.55
2018-05-26T23:34:19.023Z,12.02
2018-05-26T23:39:21.729Z,13.20
2018-05-26T23:44:24.280Z,14.15
2018-05-26T23:49:27.799Z,13.10
2018-05-26T23:54:30.314Z,14.05
2018-05-26T23:59:33.721Z,14.52
